Latest Coastal Weather Observations for Browse Island

IDD60701

Issued at 8:01 pm CST Saturday 22 February 2020 (issued every 10 minutes, with the page automatically refreshed every 10 minutes)

About coastal observations | Map of coastal stations | Coastal observations for NT | Marine services | Other Formats
Station Details ID: 200784 Name: BROWSE ISLAND Lat: -14.11 Lon: 123.55 Height: 3.7 m
Data from the previous 72 hours. | See also: Recent months at Browse Island
Date/Time
CST
Wind Sea
Height
m
Swell Vis
km
Cloud Weather Temp
°C
Press
hPa
Rain since
9am
mm
Dir  Spd
kts
Gust
kts
Height
m
Period
s
Dir
22/08:00pm NW 9 11 - - - - - - - 29.7 1008.8 -
22/07:55pm NW 9 9 - - - - - - - 29.8 1008.7 -
22/07:30pm WNW 9 10 - - - - - - - 29.7 1008.5 -
22/07:00pm WNW 7 9 - - - - - - - 29.7 1008.1 -
22/06:55pm WNW 7 - - - - - - - - 29.8 1008.0 -
22/06:30pm WNW 7 9 - - - - - - - 29.7 1007.6 -
22/06:00pm WNW 8 9 - - - - - - - 29.9 1007.5 -
22/05:55pm WNW 8 - - - - - - - - 29.8 1007.5 -
22/05:30pm WNW 8 9 - - - - - - - 29.8 1007.5 -
22/05:00pm W 9 10 - - - - - - - 29.8 1007.7 -
22/04:55pm W 9 - - - - - - - - 29.8 1007.8 -
22/04:30pm WNW 8 9 - - - - - - - 29.7 1007.8 -
22/04:00pm WNW 8 10 - - - - - - - 30.0 1008.0 -
22/03:55pm W 8 - - - - - - - - 30.0 1008.1 -
22/03:30pm W 8 10 - - - - - - - 29.9 1008.3 -
22/03:00pm W 7 9 - - - - - - - 29.8 1008.7 -
22/02:55pm W 7 - - - - - - - - 30.0 1008.7 -
22/02:30pm W 7 8 - - - - - - - 29.9 1009.1 -
22/02:00pm WNW 6 8 - - - - - - - 30.4 1009.6 -
22/01:55pm W 7 - - - - - - - - 30.0 1009.7 -
22/01:30pm WNW 7 8 - - - - - - - 30.0 1010.1 -
22/01:00pm WNW 8 10 - - - - - - - 29.9 1010.5 -
22/12:55pm WNW 8 - - - - - - - - 29.8 1010.6 -
22/12:30pm WNW 10 11 - - - - - - - 29.8 1010.8 -
22/12:00pm WNW 10 13 - - - - - - - 29.7 1010.9 -
22/11:55am WNW 10 - - - - - - - - 29.6 1010.9 -
22/11:30am WNW 11 13 - - - - - - - 29.6 1011.2 -
22/11:00am WNW 9 11 - - - - - - - 29.4 1011.1 -
22/10:55am WNW 9 - - - - - - - - 29.5 1011.1 -
22/10:30am WNW 7 9 - - - - - - - 29.6 1010.9 -
22/10:00am WNW 8 9 - - - - - - - 29.4 1010.7 -
22/09:55am WNW 8 - - - - - - - - 29.3 1010.6 -
22/09:30am WNW 6 8 - - - - - - - 29.2 1010.4 -
22/09:00am WNW 7 9 - - - - - - - 29.2 1010.3 -
22/08:55am WNW 7 - - - - - - - - 29.2 1010.3 -
22/08:30am WNW 8 9 - - - - - - - 29.1 1009.9 -
22/08:00am WNW 8 10 - - - - - - - 29.0 1009.9 -
22/07:55am WNW 8 - - - - - - - - 29.1 1009.9 -
22/07:30am WNW 9 11 - - - - - - - 29.1 1009.7 -
22/07:00am W 9 11 - - - - - - - 28.9 1009.5 -
22/06:55am W 9 - - - - - - - - 29.0 1009.5 -
22/06:30am WNW 9 11 - - - - - - - 29.0 1009.3 -
22/06:00am WNW 9 11 - - - - - - - 29.1 1009.1 -
22/05:55am WNW 9 - - - - - - - - 29.1 1009.1 -
22/05:30am W 10 12 - - - - - - - 29.0 1009.0 -
22/05:00am W 9 11 - - - - - - - 29.0 1009.2 -
22/04:55am W 9 - - - - - - - - 29.1 1009.2 -
22/04:30am W 11 13 - - - - - - - 29.0 1009.1 -
22/04:00am W 13 16 - - - - - - - 29.1 1009.4 -
22/03:55am W 13 - - - - - - - - 29.0 1009.5 -
22/03:30am W 13 15 - - - - - - - 29.1 1009.7 -
22/03:00am W 12 13 - - - - - - - 29.3 1009.9 -
22/02:55am W 11 - - - - - - - - 29.3 1009.9 -
22/02:30am W 10 11 - - - - - - - 29.2 1010.2 -
22/02:00am W 10 12 - - - - - - - 29.3 1010.6 -
22/01:55am W 10 - - - - - - - - 29.2 1010.6 -
22/01:30am WNW 10 12 - - - - - - - 29.3 1011.0 -
22/01:00am W 10 11 - - - - - - - 29.4 1011.4 -
22/12:55am W 10 - - - - - - - - 29.5 1011.5 -
22/12:30am WSW 9 11 - - - - - - - 29.5 1012.1 -
22/12:00am WSW 9 11 - - - - - - - 29.4 1012.3 -
 
Date/Time
CST
Wind Sea
Height
m
Swell Vis
km
Cloud Weather Temp
°C
Press
hPa
Rain since
9am
mm
Dir  Spd
kts
Gust
kts
Height
m
Period
s
Dir
21/11:55pm WSW 9 - - - - - - - - 29.4 1012.4 -
21/11:30pm WSW 9 11 - - - - - - - 29.4 1012.5 -
21/11:00pm W 10 12 - - - - - - - 29.3 1012.3 -
21/10:55pm W 11 - - - - - - - - 29.2 1012.3 -
21/10:30pm W 12 14 - - - - - - - 29.3 1011.9 -
21/10:00pm WNW 12 13 - - - - - - - 29.5 1011.6 -
21/09:55pm WNW 12 - - - - - - - - 29.5 1011.5 -
21/09:30pm WNW 11 14 - - - - - - - 29.4 1011.0 -
21/09:00pm W 11 14 - - - - - - - 29.2 1010.6 -
21/08:55pm W 12 - - - - - - - - 29.2 1010.5 -
21/08:30pm W 13 17 - - - - - - - 29.4 1009.9 -
21/08:00pm W 9 11 - - - - - - - 29.4 1009.4 -
21/07:55pm W 9 - - - - - - - - 29.4 1009.3 -
21/07:30pm WNW 9 11 - - - - - - - 29.4 1009.1 -
21/07:00pm WNW 9 10 - - - - - - - 29.5 1008.8 -
21/06:55pm WNW 9 - - - - - - - - 29.5 1008.7 -
21/06:30pm WNW 7 9 - - - - - - - 29.4 1008.4 -
21/06:00pm WNW 7 9 - - - - - - - 29.5 1008.1 -
21/05:55pm W 7 - - - - - - - - 29.5 1008.1 -
21/05:30pm WNW 10 13 - - - - - - - 29.4 1007.9 -
21/05:00pm WNW 11 14 - - - - - - - 29.5 1007.9 -
21/04:55pm WNW 11 - - - - - - - - 29.6 1007.9 -
21/04:30pm WNW 10 12 - - - - - - - 29.6 1008.1 -
21/04:00pm WNW 10 12 - - - - - - - 30.0 1008.6 -
21/03:55pm WNW 9 - - - - - - - - 29.6 1008.6 -
21/03:30pm WNW 10 11 - - - - - - - 29.8 1008.8 -
21/03:00pm WNW 11 13 - - - - - - - 29.5 1009.0 -
21/02:55pm WNW 11 - - - - - - - - 29.5 1009.1 -
21/02:30pm WNW 15 17 - - - - - - - 29.4 1008.8 -
21/02:00pm WNW 13 15 - - - - - - - 29.4 1009.1 -
21/01:55pm W 13 - - - - - - - - 29.4 1009.2 -
21/01:30pm WNW 10 13 - - - - - - - 29.2 1009.5 -
21/01:00pm WNW 9 11 - - - - - - - 29.0 1009.8 -
21/12:55pm WNW 9 - - - - - - - - 29.0 1009.8 -
21/12:30pm NW 7 10 - - - - - - - 29.3 1010.3 -
21/12:00pm WNW 6 8 - - - - - - - 29.0 1010.8 -
21/11:55am WNW 6 - - - - - - - - 29.3 1010.7 -
21/11:30am WNW 5 6 - - - - - - - 29.1 1011.2 -
21/11:00am WSW 4 4 - - - - - - - 28.7 1011.4 -
21/10:55am SW 3 - - - - - - - - 28.2 1011.5 -
21/10:30am SSW 3 5 - - - - - - - 28.3 1011.7 -
21/10:00am W 4 5 - - - - - - - 28.2 1011.4 -
21/09:55am W 4 - - - - - - - - 28.2 1011.4 -
21/09:30am SW 5 6 - - - - - - - 28.1 1011.2 -
21/09:00am W 9 11 - - - - - - - 27.6 1011.0 -
21/08:55am W 10 - - - - - - - - 27.7 1011.0 -
21/08:30am W 12 14 - - - - - - - 27.6 1010.5 -
21/08:00am WSW 17 20 - - - - - - - 27.7 1010.2 -
21/07:55am WSW 16 - - - - - - - - 27.3 1010.3 -
21/07:30am SSW 10 13 - - - - - - - 27.7 1010.4 -
21/07:00am SSE 6 11 - - - - - - - 28.0 1010.1 -
21/06:55am ESE 4 - - - - - - - - 28.2 1009.9 -
21/06:30am ENE 7 9 - - - - - - - 28.3 1009.8 -
21/06:00am SSE 8 10 - - - - - - - 29.0 1009.7 -
21/05:55am S 8 - - - - - - - - 28.5 1009.7 -
21/05:39am WSW 11 17 - - - - - - - 28.2 1009.6 -
21/05:30am SW 5 7 - - - - - - - 29.3 1009.5 -
21/05:00am WSW 6 7 - - - - - - - 29.3 1009.3 -
21/04:55am WSW 7 - - - - - - - - 29.3 1009.2 -
21/04:30am W 11 12 - - - - - - - 29.3 1009.4 -
21/04:00am W 8 9 - - - - - - - 29.2 1009.4 -
21/03:55am W 8 - - - - - - - - 29.2 1009.4 -
21/03:30am WSW 9 11 - - - - - - - 29.1 1009.6 -
21/03:00am W 10 12 - - - - - - - 29.2 1009.7 -
21/02:55am W 10 - - - - - - - - 29.2 1009.7 -
21/02:30am W 10 12 - - - - - - - 28.9 1010.1 -
21/02:00am WSW 16 19 - - - - - - - 28.5 1010.2 -
21/01:55am WSW 17 - - - - - - - - 28.5 1010.1 -
21/01:30am WNW 11 12 - - - - - - - 29.1 1010.6 -
21/01:00am W 8 9 - - - - - - - 29.2 1010.8 -
21/12:55am W 7 - - - - - - - - 29.1 1010.8 -
21/12:30am WSW 11 14 - - - - - - - 29.0 1011.0 -
21/12:00am WSW 9 10 - - - - - - - 28.4 1011.2 -
 
Date/Time
CST
Wind Sea
Height
m
Swell Vis
km
Cloud Weather Temp
°C
Press
hPa
Rain since
9am
mm
Dir  Spd
kts
Gust
kts
Height
m
Period
s
Dir
20/11:55pm WSW 10 - - - - - - - - 28.3 1011.3 -
20/11:30pm WSW 13 16 - - - - - - - 28.2 1010.9 -
20/11:00pm WSW 14 17 - - - - - - - 28.2 1010.7 -
20/10:55pm WSW 15 - - - - - - - - 28.4 1010.8 -
20/10:30pm WNW 8 10 - - - - - - - 29.8 1010.4 -
20/10:00pm W 9 10 - - - - - - - 29.7 1010.1 -
20/09:55pm W 8 - - - - - - - - 29.7 1010.1 -
20/09:30pm WNW 9 11 - - - - - - - 29.7 1009.4 -
20/09:00pm WNW 10 11 - - - - - - - 29.6 1008.7 -
20/08:55pm WNW 10 - - - - - - - - 29.7 1008.7 -
20/08:30pm WNW 11 13 - - - - - - - 29.6 1008.2 -
20/08:00pm WNW 13 15 - - - - - - - 29.6 1007.9 -
20/07:55pm WNW 11 - - - - - - - - 29.7 1007.8 -
20/07:30pm WNW 10 13 - - - - - - - 29.8 1007.4 -
20/07:00pm WNW 10 12 - - - - - - - 29.9 1007.2 -
20/06:55pm WNW 10 - - - - - - - - 30.0 1007.1 -
20/06:30pm WNW 11 14 - - - - - - - 30.1 1006.8 -
20/06:00pm WNW 12 14 - - - - - - - 30.0 1006.6 -
20/05:55pm W 12 - - - - - - - - 30.0 1006.6 -
20/05:30pm WNW 11 12 - - - - - - - 30.1 1006.6 -
20/05:00pm W 10 11 - - - - - - - 30.1 1006.7 -
20/04:55pm W 10 - - - - - - - - 30.0 1006.8 -
20/04:30pm W 10 11 - - - - - - - 30.2 1006.9 -
20/04:00pm W 11 11 - - - - - - - 30.0 1007.0 -
20/03:55pm W 10 - - - - - - - - 30.0 1007.0 -
20/03:30pm W 11 13 - - - - - - - 29.9 1006.9 -
20/03:00pm WNW 12 13 - - - - - - - 29.8 1007.1 -
20/02:55pm WNW 12 - - - - - - - - 29.8 1007.2 -
20/02:30pm WNW 13 15 - - - - - - - 29.9 1007.3 -
20/02:00pm WNW 12 14 - - - - - - - 29.8 1007.8 -
20/01:55pm WNW 12 - - - - - - - - 29.8 1007.8 -
20/01:30pm W 11 13 - - - - - - - 29.8 1008.1 -
20/01:00pm WNW 10 12 - - - - - - - 29.9 1008.8 -
20/12:55pm W 9 - - - - - - - - 30.0 1008.8 -
20/12:30pm WNW 10 11 - - - - - - - 29.8 1008.9 -
20/12:00pm WNW 10 12 - - - - - - - 29.8 1009.3 -
20/11:55am WNW 10 - - - - - - - - 29.8 1009.4 -
20/11:30am WNW 10 12 - - - - - - - 29.8 1009.5 -
20/11:00am WNW 9 10 - - - - - - - 29.7 1009.5 -
20/10:55am WNW 9 - - - - - - - - 29.7 1009.5 -
20/10:30am NW 9 11 - - - - - - - 29.7 1009.7 -
20/10:00am WNW 9 10 - - - - - - - 29.5 1009.4 -
20/09:55am WNW 9 - - - - - - - - 29.6 1009.4 -
20/09:30am WNW 10 12 - - - - - - - 29.5 1009.2 -
20/09:00am WNW 11 12 - - - - - - - 29.4 1008.9 -
20/08:55am WNW 10 - - - - - - - - 29.4 1008.9 -
20/08:30am WNW 12 15 - - - - - - - 29.4 1008.8 -
20/08:00am WNW 13 14 - - - - - - - 29.3 1008.4 -
20/07:55am WNW 12 - - - - - - - - 29.2 1008.3 -
20/07:30am WNW 11 12 - - - - - - - 29.2 1008.1 -
20/07:00am WNW 10 11 - - - - - - - 29.2 1008.0 -
20/06:55am WNW 10 - - - - - - - - 29.1 1007.9 -
20/06:30am WNW 9 10 - - - - - - - 29.1 1007.7 -
20/06:00am WNW 10 12 - - - - - - - 29.1 1007.4 -
20/05:55am WNW 10 - - - - - - - - 29.0 1007.3 -
20/05:30am WNW 11 14 - - - - - - - 29.1 1006.9 -
20/05:00am WNW 12 14 - - - - - - - 29.0 1006.8 -
20/04:55am WNW 12 - - - - - - - - 28.9 1006.7 -
20/04:30am WNW 11 12 - - - - - - - 29.0 1006.7 -
20/04:00am WNW 9 11 - - - - - - - 29.1 1006.9 -
20/03:55am WNW 9 - - - - - - - - 29.1 1007.0 -
20/03:30am WNW 11 12 - - - - - - - 29.1 1007.3 -
20/03:00am WNW 10 11 - - - - - - - 29.2 1007.6 -
20/02:55am WNW 10 - - - - - - - - 29.1 1007.6 -
20/02:30am WNW 8 10 - - - - - - - 29.2 1007.8 -
20/02:00am W 7 9 - - - - - - - 29.2 1008.0 -
20/01:55am W 7 - - - - - - - - 29.3 1008.0 -
20/01:30am W 9 11 - - - - - - - 29.3 1008.1 -
20/01:00am W 8 10 - - - - - - - 29.3 1008.3 -
20/12:55am W 8 - - - - - - - - 29.2 1008.4 -
20/12:30am WNW 9 9 - - - - - - - 29.3 1008.6 -
20/12:00am W 9 10 - - - - - - - 29.4 1008.8 -
 
Date/Time
CST
Wind Sea
Height
m
Swell Vis
km
Cloud Weather Temp
°C
Press
hPa
Rain since
9am
mm
Dir  Spd
kts
Gust
kts
Height
m
Period
s
Dir
19/11:55pm W 8 - - - - - - - - 29.3 1008.8 -
19/11:30pm WNW 5 6 - - - - - - - 29.3 1008.7 -
19/11:00pm W 4 5 - - - - - - - 29.2 1008.5 -
19/10:55pm W 5 - - - - - - - - 29.3 1008.5 -
19/10:30pm W 6 7 - - - - - - - 29.4 1008.2 -
19/10:00pm W 8 9 - - - - - - - 29.3 1008.2 -
19/09:55pm W 7 - - - - - - - - 29.4 1008.1 -

Other formats

Comma delimited format used in spreadsheet applications
http://www.bom.gov.au/fwo/IDD60701/IDD60701.94103.axf

JavaScript Object Notation format (JSON) in row-major order
http://www.bom.gov.au/fwo/IDD60701/IDD60701.94103.json

Data quality

Most of these data are generated automatically and are frequently updated. Quality checks on data are not normally performed. It is possible for incorrect values to appear. Refer to information at About Latest Weather Observations and please check the disclaimer before using these data.